SZN221 GABS-GOBD
Flight info
| Callsign | SZN221 |
|---|---|
| Flight time | 1h 29m |
| Altitude | 40000 |
| Route | PINVO DCT IPUGA DCT TD DCT NURAS NURAS1A |
| Aircraft | A332/H-SDE3GHIJ2J3J5M1RVWXY/LB2D1 |
Departure
| Time | 2026-05-07 22:20 |
|---|---|
| Airport | Modibo Keita International Airport (GABS) |
Arrival
| Time | 2026-05-07 23:50 |
|---|---|
| Airport | Blaise Diagne International Airport (GOBD) |
| Time | Latitude | Longitude | Altitude | Speed | Heading |
|---|---|---|---|---|---|
| 2026-05-07 21:17 | 12.54148 | -7.94418 | 1273 ft | 0 kts | 326° |
| 2026-05-07 22:06 | 12.54142 | -7.94413 | 1276 ft | 4 kts | 327° |
| 2026-05-07 22:06 | 12.54118 | -7.94399 | 1273 ft | 4 kts | 333° |
| 2026-05-07 22:06 | 12.54094 | -7.94388 | 1272 ft | 4 kts | 341° |
| 2026-05-07 22:07 | 12.54068 | -7.94381 | 1272 ft | 4 kts | 353° |
| 2026-05-07 22:07 | 12.54055 | -7.94379 | 1275 ft | 1 kts | 356° |
| 2026-05-07 22:10 | 12.54059 | -7.94380 | 1272 ft | 0 kts | 354° |
| 2026-05-07 22:11 | 12.54060 | -7.94380 | 1272 ft | 0 kts | 355° |
| 2026-05-07 22:11 | 12.54061 | -7.94379 | 1272 ft | 0 kts | 1° |
| 2026-05-07 22:12 | 12.54063 | -7.94379 | 1273 ft | 1 kts | 4° |
| 2026-05-07 22:12 | 12.54072 | -7.94378 | 1269 ft | 2 kts | 10° |
| 2026-05-07 22:12 | 12.54086 | -7.94368 | 1278 ft | 3 kts | 36° |
| 2026-05-07 22:12 | 12.54103 | -7.94346 | 1275 ft | 5 kts | 57° |
| 2026-05-07 22:13 | 12.54124 | -7.94300 | 1271 ft | 6 kts | 61° |
| 2026-05-07 22:13 | 12.54147 | -7.94256 | 1279 ft | 8 kts | 61° |
| 2026-05-07 22:13 | 12.54178 | -7.94204 | 1273 ft | 9 kts | 57° |
| 2026-05-07 22:13 | 12.54207 | -7.94162 | 1276 ft | 12 kts | 54° |
| 2026-05-07 22:14 | 12.54264 | -7.94078 | 1276 ft | 17 kts | 55° |
| 2026-05-07 22:14 | 12.54335 | -7.93969 | 1278 ft | 20 kts | 57° |
| 2026-05-07 22:14 | 12.54418 | -7.93838 | 1283 ft | 23 kts | 57° |
| 2026-05-07 22:14 | 12.54509 | -7.93689 | 1288 ft | 27 kts | 58° |
| 2026-05-07 22:15 | 12.54556 | -7.93617 | 1286 ft | 1 kts | 51° |
| 2026-05-07 22:15 | 12.54561 | -7.93617 | 1288 ft | 1 kts | 14° |
| 2026-05-07 22:15 | 12.54566 | -7.93622 | 1289 ft | 1 kts | 333° |
| 2026-05-07 22:15 | 12.54565 | -7.93632 | 1288 ft | 2 kts | 261° |
| 2026-05-07 22:16 | 12.54538 | -7.93662 | 1288 ft | 11 kts | 229° |
| 2026-05-07 22:16 | 12.54475 | -7.93746 | 1285 ft | 18 kts | 236° |
| 2026-05-07 22:16 | 12.54395 | -7.93868 | 1282 ft | 19 kts | 237° |
| 2026-05-07 22:16 | 12.54313 | -7.93903 | 1279 ft | 12 kts | 161° |
| 2026-05-07 22:17 | 12.54237 | -7.93861 | 1280 ft | 13 kts | 153° |
| 2026-05-07 22:17 | 12.54170 | -7.93813 | 1280 ft | 11 kts | 132° |
| 2026-05-07 22:17 | 12.54168 | -7.93752 | 1283 ft | 8 kts | 63° |
| 2026-05-07 22:17 | 12.54193 | -7.93700 | 1286 ft | 8 kts | 61° |
| 2026-05-07 22:18 | 12.54229 | -7.93667 | 1288 ft | 7 kts | 26° |
| 2026-05-07 22:18 | 12.54265 | -7.93612 | 1286 ft | 1 kts | 143° |
| 2026-05-07 22:18 | 12.54257 | -7.93615 | 1288 ft | 1 kts | 193° |
| 2026-05-07 22:19 | 12.54234 | -7.93639 | 1287 ft | 10 kts | 228° |
| 2026-05-07 22:19 | 12.54211 | -7.93672 | 1286 ft | 0 kts | 235° |
| 2026-05-07 22:19 | 12.54207 | -7.93677 | 1286 ft | 10 kts | 235° |
| 2026-05-07 22:20 | 12.54031 | -7.93949 | 1278 ft | 79 kts | 237° |
| 2026-05-07 22:20 | 12.53622 | -7.94579 | 1270 ft | 134 kts | 236° |
| 2026-05-07 22:20 | 12.53060 | -7.95500 | 1464 ft | 162 kts | 241° |
| 2026-05-07 22:20 | 12.52469 | -7.96502 | 2069 ft | 166 kts | 232° |
| 2026-05-07 22:21 | 12.51788 | -7.97458 | 2729 ft | 168 kts | 231° |
| 2026-05-07 22:21 | 12.51396 | -7.98558 | 3429 ft | 167 kts | 257° |
| 2026-05-07 22:21 | 12.51539 | -7.99800 | 3786 ft | 191 kts | 285° |
| 2026-05-07 22:21 | 12.51952 | -8.01168 | 4051 ft | 212 kts | 282° |
| 2026-05-07 22:22 | 12.52445 | -8.02676 | 4329 ft | 234 kts | 285° |
| 2026-05-07 22:22 | 12.52992 | -8.04322 | 4617 ft | 254 kts | 285° |
| 2026-05-07 22:22 | 12.53543 | -8.06118 | 4878 ft | 274 kts | 283° |
| 2026-05-07 22:22 | 12.54068 | -8.08015 | 5563 ft | 278 kts | 283° |
| 2026-05-07 22:23 | 12.54565 | -8.09938 | 6372 ft | 281 kts | 283° |
| 2026-05-07 22:23 | 12.55043 | -8.11887 | 7138 ft | 284 kts | 283° |
| 2026-05-07 22:23 | 12.55515 | -8.13864 | 7941 ft | 288 kts | 283° |
| 2026-05-07 22:23 | 12.55989 | -8.15868 | 8760 ft | 292 kts | 283° |
| 2026-05-07 22:24 | 12.56469 | -8.17900 | 9614 ft | 295 kts | 284° |
| 2026-05-07 22:24 | 12.56960 | -8.19966 | 10314 ft | 306 kts | 284° |
| 2026-05-07 22:24 | 12.57482 | -8.22153 | 10652 ft | 327 kts | 284° |
| 2026-05-07 22:24 | 12.58037 | -8.24470 | 11121 ft | 341 kts | 284° |
| 2026-05-07 22:25 | 12.58607 | -8.26847 | 11822 ft | 347 kts | 284° |
| 2026-05-07 22:25 | 12.59185 | -8.29260 | 12597 ft | 351 kts | 284° |
| 2026-05-07 22:25 | 12.59768 | -8.31700 | 13355 ft | 355 kts | 284° |
| 2026-05-07 22:25 | 12.60360 | -8.34176 | 14018 ft | 361 kts | 284° |
| 2026-05-07 22:26 | 12.60948 | -8.36637 | 14800 ft | 360 kts | 284° |
| 2026-05-07 22:26 | 12.61553 | -8.39172 | 15487 ft | 364 kts | 284° |
| 2026-05-07 22:26 | 12.62160 | -8.41712 | 16088 ft | 370 kts | 284° |
| 2026-05-07 22:26 | 12.62766 | -8.44254 | 16710 ft | 375 kts | 284° |
| 2026-05-07 22:27 | 12.63396 | -8.46893 | 17368 ft | 378 kts | 284° |
| 2026-05-07 22:27 | 12.64017 | -8.49495 | 18026 ft | 381 kts | 283° |
| 2026-05-07 22:27 | 12.64645 | -8.52130 | 18650 ft | 383 kts | 283° |
| 2026-05-07 22:27 | 12.65278 | -8.54792 | 19166 ft | 386 kts | 283° |
| 2026-05-07 22:28 | 12.65915 | -8.57468 | 19707 ft | 389 kts | 283° |
| 2026-05-07 22:28 | 12.66557 | -8.60168 | 20245 ft | 391 kts | 283° |
| 2026-05-07 22:28 | 12.67204 | -8.62887 | 20774 ft | 394 kts | 283° |
| 2026-05-07 22:28 | 12.67853 | -8.65616 | 21345 ft | 395 kts | 283° |
| 2026-05-07 22:29 | 12.68505 | -8.68360 | 21858 ft | 399 kts | 283° |
| 2026-05-07 22:29 | 12.69163 | -8.71133 | 22364 ft | 402 kts | 283° |
| 2026-05-07 22:29 | 12.69824 | -8.73916 | 22992 ft | 401 kts | 283° |
| 2026-05-07 22:29 | 12.70483 | -8.76695 | 23507 ft | 403 kts | 283° |
| 2026-05-07 22:30 | 12.71148 | -8.79502 | 23881 ft | 407 kts | 283° |
| 2026-05-07 22:30 | 12.71819 | -8.82330 | 24266 ft | 411 kts | 283° |
| 2026-05-07 22:30 | 12.72494 | -8.85182 | 24628 ft | 414 kts | 282° |
| 2026-05-07 22:30 | 12.73176 | -8.88062 | 24992 ft | 418 kts | 282° |
| 2026-05-07 22:31 | 12.73854 | -8.90928 | 25353 ft | 421 kts | 282° |
| 2026-05-07 22:31 | 12.74546 | -8.93854 | 25714 ft | 424 kts | 282° |
| 2026-05-07 22:31 | 12.75243 | -8.96803 | 26077 ft | 427 kts | 282° |
| 2026-05-07 22:31 | 12.75945 | -8.99773 | 26439 ft | 431 kts | 282° |
| 2026-05-07 22:32 | 12.76652 | -9.02770 | 26787 ft | 434 kts | 282° |
| 2026-05-07 22:32 | 12.77363 | -9.05778 | 27144 ft | 436 kts | 282° |
| 2026-05-07 22:32 | 12.78078 | -9.08812 | 27496 ft | 439 kts | 282° |
| 2026-05-07 22:32 | 12.78797 | -9.11862 | 27923 ft | 440 kts | 281° |
| 2026-05-07 22:33 | 12.79517 | -9.14913 | 28302 ft | 442 kts | 281° |
| 2026-05-07 22:33 | 12.80241 | -9.17989 | 28636 ft | 446 kts | 281° |
| 2026-05-07 22:33 | 12.80970 | -9.21088 | 28971 ft | 449 kts | 281° |
| 2026-05-07 22:33 | 12.81703 | -9.24206 | 29280 ft | 451 kts | 281° |
| 2026-05-07 22:34 | 12.82440 | -9.27340 | 29595 ft | 454 kts | 281° |
| 2026-05-07 22:34 | 12.83182 | -9.30498 | 29910 ft | 457 kts | 281° |
| 2026-05-07 22:34 | 12.83926 | -9.33668 | 30208 ft | 459 kts | 281° |
| 2026-05-07 22:34 | 12.84664 | -9.36809 | 30542 ft | 459 kts | 281° |
| 2026-05-07 22:35 | 12.85412 | -9.39994 | 30888 ft | 459 kts | 281° |
| 2026-05-07 22:35 | 12.86158 | -9.43173 | 31219 ft | 459 kts | 281° |
| 2026-05-07 22:35 | 12.86904 | -9.46356 | 31561 ft | 460 kts | 281° |
| 2026-05-07 22:35 | 12.87650 | -9.49538 | 31935 ft | 459 kts | 281° |
| 2026-05-07 22:36 | 12.88392 | -9.52706 | 32388 ft | 456 kts | 281° |
| 2026-05-07 22:36 | 12.89129 | -9.55852 | 32876 ft | 452 kts | 281° |
| 2026-05-07 22:36 | 12.89859 | -9.58971 | 33375 ft | 448 kts | 281° |
| 2026-05-07 22:36 | 12.90583 | -9.62069 | 33853 ft | 445 kts | 281° |
| 2026-05-07 22:37 | 12.91302 | -9.65145 | 34241 ft | 442 kts | 281° |
| 2026-05-07 22:37 | 12.92015 | -9.68203 | 34617 ft | 440 kts | 281° |
| 2026-05-07 22:37 | 12.92725 | -9.71247 | 34984 ft | 438 kts | 281° |
| 2026-05-07 22:37 | 12.93429 | -9.74273 | 35367 ft | 435 kts | 281° |
| 2026-05-07 22:38 | 12.94102 | -9.77282 | 35737 ft | 432 kts | 281° |
| 2026-05-07 22:38 | 12.94741 | -9.80279 | 36108 ft | 430 kts | 280° |
| 2026-05-07 22:38 | 12.95365 | -9.83265 | 36516 ft | 426 kts | 280° |
| 2026-05-07 22:38 | 12.95978 | -9.86227 | 36892 ft | 423 kts | 280° |
| 2026-05-07 22:39 | 12.96588 | -9.89171 | 37211 ft | 422 kts | 280° |
| 2026-05-07 22:39 | 12.97199 | -9.92110 | 37537 ft | 420 kts | 280° |
| 2026-05-07 22:39 | 12.97808 | -9.95030 | 37866 ft | 418 kts | 280° |
| 2026-05-07 22:39 | 12.98415 | -9.97935 | 38203 ft | 416 kts | 281° |
| 2026-05-07 22:40 | 12.99014 | -10.00795 | 38510 ft | 414 kts | 281° |
| 2026-05-07 22:40 | 12.99619 | -10.03681 | 38745 ft | 413 kts | 280° |
| 2026-05-07 22:40 | 13.00222 | -10.06562 | 38936 ft | 413 kts | 280° |
| 2026-05-07 22:40 | 13.00825 | -10.09445 | 39111 ft | 414 kts | 280° |
| 2026-05-07 22:41 | 13.01428 | -10.12327 | 39291 ft | 414 kts | 280° |
| 2026-05-07 22:41 | 13.02031 | -10.15214 | 39469 ft | 414 kts | 280° |
| 2026-05-07 22:41 | 13.02635 | -10.18103 | 39642 ft | 414 kts | 280° |
| 2026-05-07 22:41 | 13.03237 | -10.20989 | 39794 ft | 415 kts | 280° |
| 2026-05-07 22:42 | 13.03843 | -10.23896 | 39823 ft | 419 kts | 279° |
| 2026-05-07 22:42 | 13.05070 | -10.29790 | 39820 ft | 424 kts | 280° |
| 2026-05-07 22:43 | 13.06303 | -10.35710 | 39819 ft | 424 kts | 279° |
| 2026-05-07 22:43 | 13.07532 | -10.41616 | 39827 ft | 423 kts | 279° |
| 2026-05-07 22:44 | 13.08759 | -10.47520 | 39822 ft | 423 kts | 279° |
| 2026-05-07 22:44 | 13.09984 | -10.53425 | 39821 ft | 423 kts | 279° |
| 2026-05-07 22:45 | 13.11208 | -10.59337 | 39825 ft | 423 kts | 279° |
| 2026-05-07 22:45 | 13.12423 | -10.65204 | 39823 ft | 423 kts | 279° |
| 2026-05-07 22:46 | 13.13643 | -10.71106 | 39820 ft | 423 kts | 279° |
| 2026-05-07 22:46 | 13.14861 | -10.77007 | 39827 ft | 423 kts | 279° |
| 2026-05-07 22:47 | 13.16077 | -10.82907 | 39813 ft | 423 kts | 279° |
| 2026-05-07 22:47 | 13.17292 | -10.88805 | 39831 ft | 423 kts | 279° |
| 2026-05-07 22:48 | 13.18507 | -10.94710 | 39831 ft | 423 kts | 279° |
| 2026-05-07 22:48 | 13.19720 | -11.00611 | 39829 ft | 422 kts | 279° |
| 2026-05-07 22:49 | 13.20930 | -11.06508 | 39831 ft | 422 kts | 279° |
| 2026-05-07 22:49 | 13.22139 | -11.12406 | 39824 ft | 422 kts | 279° |
| 2026-05-07 22:50 | 13.23346 | -11.18301 | 39823 ft | 422 kts | 279° |
| 2026-05-07 22:50 | 13.24552 | -11.24199 | 39838 ft | 422 kts | 279° |
| 2026-05-07 22:51 | 13.25752 | -11.30077 | 39830 ft | 419 kts | 279° |
| 2026-05-07 22:51 | 13.26945 | -11.35921 | 39830 ft | 417 kts | 279° |
| 2026-05-07 22:52 | 13.28124 | -11.41708 | 39830 ft | 417 kts | 279° |
| 2026-05-07 22:52 | 13.29309 | -11.47534 | 39830 ft | 417 kts | 279° |
| 2026-05-07 22:53 | 13.30492 | -11.53356 | 39831 ft | 417 kts | 279° |
| 2026-05-07 22:53 | 13.31675 | -11.59181 | 39836 ft | 417 kts | 279° |
| 2026-05-07 22:54 | 13.32856 | -11.65008 | 39832 ft | 417 kts | 279° |
| 2026-05-07 22:54 | 13.34035 | -11.70833 | 39835 ft | 417 kts | 279° |
| 2026-05-07 22:55 | 13.35215 | -11.76666 | 39834 ft | 417 kts | 279° |
| 2026-05-07 22:55 | 13.36393 | -11.82498 | 39834 ft | 417 kts | 279° |
| 2026-05-07 22:56 | 13.37568 | -11.88322 | 39834 ft | 417 kts | 279° |
| 2026-05-07 22:56 | 13.38742 | -11.94152 | 39838 ft | 417 kts | 279° |
| 2026-05-07 22:57 | 13.39915 | -11.99981 | 39836 ft | 417 kts | 279° |
| 2026-05-07 22:57 | 13.41087 | -12.05812 | 39840 ft | 417 kts | 279° |
| 2026-05-07 22:58 | 13.42250 | -12.11601 | 39841 ft | 417 kts | 279° |
| 2026-05-07 22:58 | 13.43421 | -12.17442 | 39840 ft | 417 kts | 279° |
| 2026-05-07 22:59 | 13.44591 | -12.23284 | 39845 ft | 417 kts | 279° |
| 2026-05-07 22:59 | 13.45758 | -12.29121 | 39846 ft | 417 kts | 279° |
| 2026-05-07 23:00 | 13.46923 | -12.34957 | 39850 ft | 417 kts | 279° |
| 2026-05-07 23:00 | 13.48087 | -12.40800 | 39853 ft | 417 kts | 278° |
| 2026-05-07 23:01 | 13.49252 | -12.46648 | 39848 ft | 417 kts | 278° |
| 2026-05-07 23:01 | 13.50407 | -12.52452 | 39851 ft | 417 kts | 278° |
| 2026-05-07 23:02 | 13.51379 | -12.57345 | 39850 ft | 417 kts | 278° |
| 2026-05-07 23:02 | 13.52727 | -12.64143 | 39854 ft | 417 kts | 278° |
| 2026-05-07 23:03 | 13.53698 | -12.69040 | 39854 ft | 417 kts | 278° |
| 2026-05-07 23:03 | 13.54853 | -12.74875 | 39855 ft | 416 kts | 278° |
| 2026-05-07 23:04 | 13.56002 | -12.80688 | 39854 ft | 416 kts | 278° |
| 2026-05-07 23:04 | 13.57152 | -12.86515 | 39853 ft | 416 kts | 278° |
| 2026-05-07 23:05 | 13.58293 | -12.92301 | 39853 ft | 416 kts | 278° |
| 2026-05-07 23:05 | 13.59440 | -12.98123 | 39857 ft | 416 kts | 278° |
| 2026-05-07 23:06 | 13.60585 | -13.03948 | 39858 ft | 416 kts | 278° |
| 2026-05-07 23:06 | 13.61729 | -13.09771 | 39856 ft | 416 kts | 278° |
| 2026-05-07 23:07 | 13.62873 | -13.15599 | 39858 ft | 416 kts | 278° |
| 2026-05-07 23:07 | 13.64014 | -13.21422 | 39862 ft | 416 kts | 278° |
| 2026-05-07 23:08 | 13.65155 | -13.27255 | 39862 ft | 416 kts | 278° |
| 2026-05-07 23:08 | 13.66293 | -13.33081 | 39858 ft | 416 kts | 278° |
| 2026-05-07 23:09 | 13.67431 | -13.38911 | 39850 ft | 416 kts | 278° |
| 2026-05-07 23:09 | 13.68567 | -13.44737 | 39844 ft | 416 kts | 278° |
| 2026-05-07 23:10 | 13.69702 | -13.50567 | 39834 ft | 416 kts | 277° |
| 2026-05-07 23:10 | 13.70823 | -13.56332 | 39829 ft | 417 kts | 277° |
| 2026-05-07 23:11 | 13.71967 | -13.62228 | 39828 ft | 418 kts | 277° |
| 2026-05-07 23:11 | 13.73212 | -13.68026 | 39831 ft | 419 kts | 281° |
| 2026-05-07 23:12 | 13.74803 | -13.73808 | 39828 ft | 420 kts | 282° |
| 2026-05-07 23:12 | 13.76405 | -13.79584 | 39834 ft | 420 kts | 282° |
| 2026-05-07 23:13 | 13.78000 | -13.85367 | 39844 ft | 420 kts | 282° |
| 2026-05-07 23:13 | 13.79592 | -13.91157 | 39853 ft | 422 kts | 282° |
| 2026-05-07 23:14 | 13.81186 | -13.96957 | 39870 ft | 422 kts | 282° |
| 2026-05-07 23:14 | 13.82779 | -14.02763 | 39870 ft | 421 kts | 282° |
| 2026-05-07 23:15 | 13.84370 | -14.08566 | 39873 ft | 421 kts | 282° |
| 2026-05-07 23:15 | 13.85958 | -14.14364 | 39873 ft | 421 kts | 282° |
| 2026-05-07 23:16 | 13.87545 | -14.20163 | 39873 ft | 421 kts | 282° |
| 2026-05-07 23:16 | 13.89131 | -14.25969 | 39870 ft | 422 kts | 282° |
| 2026-05-07 23:17 | 13.90710 | -14.31749 | 39870 ft | 422 kts | 282° |
| 2026-05-07 23:17 | 13.92255 | -14.37414 | 39870 ft | 422 kts | 282° |
| 2026-05-07 23:18 | 13.93842 | -14.43238 | 39881 ft | 422 kts | 282° |
| 2026-05-07 23:18 | 13.95424 | -14.49050 | 39881 ft | 422 kts | 282° |
| 2026-05-07 23:19 | 13.97009 | -14.54877 | 39887 ft | 423 kts | 282° |
| 2026-05-07 23:19 | 13.98593 | -14.60708 | 39887 ft | 423 kts | 281° |
| 2026-05-07 23:20 | 14.00179 | -14.66554 | 39889 ft | 424 kts | 281° |
| 2026-05-07 23:20 | 14.01765 | -14.72403 | 39890 ft | 424 kts | 281° |
| 2026-05-07 23:21 | 14.03351 | -14.78256 | 39890 ft | 424 kts | 281° |
| 2026-05-07 23:21 | 14.04937 | -14.84117 | 39895 ft | 424 kts | 281° |
| 2026-05-07 23:22 | 14.06521 | -14.89977 | 39895 ft | 424 kts | 281° |
| 2026-05-07 23:22 | 14.08101 | -14.95830 | 39889 ft | 425 kts | 281° |
| 2026-05-07 23:22 | 14.08880 | -14.98716 | 39526 ft | 424 kts | 281° |
| 2026-05-07 23:23 | 14.09666 | -15.01627 | 39269 ft | 418 kts | 281° |
| 2026-05-07 23:23 | 14.10437 | -15.04481 | 39100 ft | 410 kts | 281° |
| 2026-05-07 23:23 | 14.11192 | -15.07278 | 38951 ft | 401 kts | 281° |
| 2026-05-07 23:23 | 14.11936 | -15.10039 | 38498 ft | 400 kts | 281° |
| 2026-05-07 23:24 | 14.12683 | -15.12830 | 37585 ft | 409 kts | 281° |
| 2026-05-07 23:24 | 14.13448 | -15.15685 | 36791 ft | 416 kts | 281° |
| 2026-05-07 23:24 | 14.14221 | -15.18564 | 36203 ft | 417 kts | 281° |
| 2026-05-07 23:24 | 14.14998 | -15.21455 | 35412 ft | 423 kts | 281° |
| 2026-05-07 23:25 | 14.15790 | -15.24408 | 34496 ft | 432 kts | 281° |
| 2026-05-07 23:25 | 14.16600 | -15.27431 | 33674 ft | 442 kts | 281° |
| 2026-05-07 23:25 | 14.17426 | -15.30510 | 33139 ft | 448 kts | 281° |
| 2026-05-07 23:25 | 14.18257 | -15.33605 | 32928 ft | 448 kts | 281° |
| 2026-05-07 23:26 | 14.19088 | -15.36696 | 32910 ft | 447 kts | 281° |
| 2026-05-07 23:26 | 14.20738 | -15.42852 | 32912 ft | 445 kts | 281° |
| 2026-05-07 23:27 | 14.21985 | -15.52129 | 32901 ft | 434 kts | 263° |
| 2026-05-07 23:27 | 14.21763 | -15.55226 | 32413 ft | 432 kts | 263° |
| 2026-05-07 23:27 | 14.21520 | -15.58295 | 31964 ft | 427 kts | 263° |
| 2026-05-07 23:28 | 14.21282 | -15.61328 | 31552 ft | 421 kts | 263° |
| 2026-05-07 23:28 | 14.21051 | -15.64323 | 31119 ft | 417 kts | 263° |
| 2026-05-07 23:28 | 14.20827 | -15.67267 | 30811 ft | 409 kts | 263° |
| 2026-05-07 23:28 | 14.20607 | -15.70164 | 30421 ft | 404 kts | 264° |
| 2026-05-07 23:29 | 14.20390 | -15.73037 | 29934 ft | 401 kts | 264° |
| 2026-05-07 23:29 | 14.20174 | -15.75899 | 29360 ft | 399 kts | 264° |
| 2026-05-07 23:29 | 14.19959 | -15.78743 | 28764 ft | 397 kts | 264° |
| 2026-05-07 23:29 | 14.19745 | -15.81577 | 28191 ft | 396 kts | 264° |
| 2026-05-07 23:30 | 14.19532 | -15.84399 | 27648 ft | 394 kts | 264° |
| 2026-05-07 23:30 | 14.19319 | -15.87207 | 27101 ft | 392 kts | 264° |
| 2026-05-07 23:30 | 14.19108 | -15.89998 | 26573 ft | 390 kts | 264° |
| 2026-05-07 23:30 | 14.18896 | -15.92784 | 26054 ft | 388 kts | 265° |
| 2026-05-07 23:31 | 14.18686 | -15.95554 | 25548 ft | 387 kts | 265° |
| 2026-05-07 23:31 | 14.18478 | -15.98277 | 25048 ft | 385 kts | 265° |
| 2026-05-07 23:31 | 14.18269 | -16.01020 | 24558 ft | 384 kts | 265° |
| 2026-05-07 23:31 | 14.18061 | -16.03754 | 24078 ft | 382 kts | 265° |
| 2026-05-07 23:32 | 14.17853 | -16.06475 | 23589 ft | 380 kts | 265° |
| 2026-05-07 23:32 | 14.17645 | -16.09191 | 23010 ft | 379 kts | 265° |
| 2026-05-07 23:32 | 14.17438 | -16.11897 | 22431 ft | 378 kts | 265° |
| 2026-05-07 23:32 | 14.17231 | -16.14591 | 21867 ft | 377 kts | 265° |
| 2026-05-07 23:33 | 14.17025 | -16.17277 | 21315 ft | 375 kts | 265° |
| 2026-05-07 23:33 | 14.16819 | -16.19949 | 20822 ft | 372 kts | 265° |
| 2026-05-07 23:33 | 14.16615 | -16.22601 | 20308 ft | 371 kts | 265° |
| 2026-05-07 23:33 | 14.16411 | -16.25240 | 19769 ft | 370 kts | 265° |
| 2026-05-07 23:34 | 14.16208 | -16.27874 | 19280 ft | 368 kts | 264° |
| 2026-05-07 23:34 | 14.16004 | -16.30503 | 18770 ft | 367 kts | 264° |
| 2026-05-07 23:34 | 14.15801 | -16.33122 | 18257 ft | 366 kts | 264° |
| 2026-05-07 23:34 | 14.15597 | -16.35746 | 17624 ft | 367 kts | 264° |
| 2026-05-07 23:35 | 14.15394 | -16.38357 | 17097 ft | 365 kts | 264° |
| 2026-05-07 23:35 | 14.15193 | -16.40952 | 16577 ft | 363 kts | 264° |
| 2026-05-07 23:35 | 14.14991 | -16.43538 | 16058 ft | 361 kts | 263° |
| 2026-05-07 23:35 | 14.14793 | -16.46073 | 15541 ft | 359 kts | 264° |
| 2026-05-07 23:36 | 14.14593 | -16.48631 | 15037 ft | 357 kts | 264° |
| 2026-05-07 23:36 | 14.14393 | -16.51177 | 14550 ft | 355 kts | 264° |
| 2026-05-07 23:36 | 14.14195 | -16.53707 | 14093 ft | 353 kts | 263° |
| 2026-05-07 23:36 | 14.13998 | -16.56220 | 13584 ft | 351 kts | 263° |
| 2026-05-07 23:37 | 14.13802 | -16.58715 | 13041 ft | 350 kts | 264° |
| 2026-05-07 23:37 | 14.13604 | -16.61219 | 12512 ft | 347 kts | 264° |
| 2026-05-07 23:37 | 14.13411 | -16.63688 | 12021 ft | 345 kts | 265° |
| 2026-05-07 23:37 | 14.13483 | -16.66147 | 11534 ft | 343 kts | 280° |
| 2026-05-07 23:38 | 14.14323 | -16.68435 | 11017 ft | 343 kts | 298° |
| 2026-05-07 23:38 | 14.15545 | -16.70527 | 10608 ft | 338 kts | 302° |
| 2026-05-07 23:38 | 14.16786 | -16.72537 | 10399 ft | 327 kts | 302° |
| 2026-05-07 23:38 | 14.17984 | -16.74483 | 10187 ft | 316 kts | 302° |
| 2026-05-07 23:39 | 14.19138 | -16.76369 | 9970 ft | 308 kts | 302° |
| 2026-05-07 23:39 | 14.20268 | -16.78224 | 9626 ft | 304 kts | 302° |
| 2026-05-07 23:39 | 14.21386 | -16.80061 | 9258 ft | 301 kts | 302° |
| 2026-05-07 23:39 | 14.22478 | -16.81858 | 8923 ft | 299 kts | 303° |
| 2026-05-07 23:40 | 14.23577 | -16.83669 | 8534 ft | 297 kts | 303° |
| 2026-05-07 23:40 | 14.24668 | -16.85466 | 8164 ft | 294 kts | 303° |
| 2026-05-07 23:40 | 14.25749 | -16.87247 | 7803 ft | 292 kts | 303° |
| 2026-05-07 23:40 | 14.26824 | -16.89021 | 7408 ft | 291 kts | 304° |
| 2026-05-07 23:41 | 14.27895 | -16.90786 | 7057 ft | 289 kts | 304° |
| 2026-05-07 23:41 | 14.28955 | -16.92538 | 6725 ft | 286 kts | 304° |
| 2026-05-07 23:41 | 14.30004 | -16.94272 | 6371 ft | 284 kts | 304° |
| 2026-05-07 23:41 | 14.31048 | -16.95988 | 6074 ft | 279 kts | 303° |
| 2026-05-07 23:42 | 14.32076 | -16.97682 | 5688 ft | 278 kts | 303° |
| 2026-05-07 23:42 | 14.33100 | -16.99372 | 5347 ft | 277 kts | 303° |
| 2026-05-07 23:42 | 14.34088 | -17.01008 | 5186 ft | 266 kts | 304° |
| 2026-05-07 23:42 | 14.35049 | -17.02602 | 5013 ft | 258 kts | 304° |
| 2026-05-07 23:43 | 14.35994 | -17.04160 | 4751 ft | 255 kts | 304° |
| 2026-05-07 23:43 | 14.36968 | -17.05672 | 4483 ft | 250 kts | 312° |
| 2026-05-07 23:43 | 14.38306 | -17.06753 | 4170 ft | 243 kts | 339° |
| 2026-05-07 23:43 | 14.39944 | -17.07064 | 4010 ft | 240 kts | 358° |
| 2026-05-07 23:44 | 14.41627 | -17.07095 | 3883 ft | 244 kts | 0° |
| 2026-05-07 23:44 | 14.43345 | -17.07021 | 3506 ft | 247 kts | 5° |
| 2026-05-07 23:44 | 14.45038 | -17.06921 | 3356 ft | 239 kts | 1° |
| 2026-05-07 23:44 | 14.46669 | -17.06930 | 3241 ft | 230 kts | 359° |
| 2026-05-07 23:45 | 14.48236 | -17.06962 | 3156 ft | 219 kts | 359° |
| 2026-05-07 23:45 | 14.49709 | -17.06991 | 3054 ft | 203 kts | 359° |
| 2026-05-07 23:45 | 14.51030 | -17.07014 | 2994 ft | 178 kts | 360° |
| 2026-05-07 23:45 | 14.52211 | -17.07030 | 2820 ft | 163 kts | 360° |
| 2026-05-07 23:46 | 14.53313 | -17.07046 | 2619 ft | 153 kts | 359° |
| 2026-05-07 23:46 | 14.54334 | -17.07063 | 2403 ft | 141 kts | 359° |
| 2026-05-07 23:46 | 14.55271 | -17.07084 | 2180 ft | 129 kts | 358° |
| 2026-05-07 23:46 | 14.56134 | -17.07087 | 2013 ft | 121 kts | 3° |
| 2026-05-07 23:47 | 14.56958 | -17.07075 | 1901 ft | 121 kts | 359° |
| 2026-05-07 23:47 | 14.57796 | -17.07103 | 1769 ft | 120 kts | 359° |
| 2026-05-07 23:47 | 14.58625 | -17.07124 | 1638 ft | 118 kts | 357° |
| 2026-05-07 23:47 | 14.59443 | -17.07160 | 1480 ft | 117 kts | 358° |
| 2026-05-07 23:48 | 14.60257 | -17.07193 | 1328 ft | 118 kts | 359° |
| 2026-05-07 23:48 | 14.61074 | -17.07200 | 1168 ft | 117 kts | 357° |
| 2026-05-07 23:48 | 14.61883 | -17.07204 | 1081 ft | 116 kts | 1° |
| 2026-05-07 23:48 | 14.62688 | -17.07223 | 934 ft | 115 kts | 1° |
| 2026-05-07 23:49 | 14.63502 | -17.07231 | 741 ft | 118 kts | 357° |
| 2026-05-07 23:49 | 14.64316 | -17.07244 | 550 ft | 117 kts | 357° |
| 2026-05-07 23:49 | 14.65119 | -17.07272 | 414 ft | 116 kts | 359° |
| 2026-05-07 23:49 | 14.65917 | -17.07268 | 306 ft | 109 kts | 359° |
| 2026-05-07 23:50 | 14.66480 | -17.07279 | 303 ft | 52 kts | 359° |
| 2026-05-07 23:50 | 14.66707 | -17.07282 | 305 ft | 26 kts | 0° |
| 2026-05-07 23:50 | 14.66887 | -17.07281 | 305 ft | 25 kts | 359° |
| 2026-05-07 23:50 | 14.67025 | -17.07276 | 302 ft | 15 kts | 19° |
| 2026-05-07 23:51 | 14.67073 | -17.07208 | 302 ft | 12 kts | 76° |
| 2026-05-07 23:51 | 14.67078 | -17.07152 | 301 ft | 9 kts | 87° |
| 2026-05-07 23:51 | 14.67079 | -17.07142 | 301 ft | 0 kts | 87° |
| 2026-05-07 23:52 | 14.67079 | -17.07139 | 301 ft | 2 kts | 87° |
| 2026-05-07 23:52 | 14.67078 | -17.07118 | 301 ft | 4 kts | 92° |
| 2026-05-07 23:52 | 14.67078 | -17.07076 | 301 ft | 7 kts | 91° |
| 2026-05-07 23:53 | 14.67071 | -17.07021 | 300 ft | 8 kts | 115° |
| 2026-05-07 23:53 | 14.67029 | -17.06983 | 299 ft | 9 kts | 140° |
| 2026-05-07 23:53 | 14.67008 | -17.06932 | 302 ft | 7 kts | 89° |
| 2026-05-07 23:53 | 14.67019 | -17.06891 | 301 ft | 4 kts | 75° |
| 2026-05-07 23:54 | 14.67022 | -17.06867 | 301 ft | 2 kts | 87° |
| 2026-05-07 23:54 | 14.67022 | -17.06856 | 303 ft | 2 kts | 87° |
| 2026-05-07 23:54 | 14.67023 | -17.06852 | 302 ft | 0 kts | 87° |
| 2026-05-07 23:54 | 14.67023 | -17.06849 | 302 ft | 2 kts | 87° |
| 2026-05-07 23:55 | 14.67023 | -17.06847 | 302 ft | 0 kts | 87° |